Time;durP1;ratioP1;P1;durP2;ratioP2;P2;SDS_P1;SDS_P2;PMS_P1;PMS_P2;Temp;Humidity;BMP_temperature;BMP_pressure;BME280_temperature;BME280_humidity;BME280_pressure;Samples;Min_cycle;Max_cycle;Signal;HPM_P1;HPM_P2
2022/08/04 00:02:03;;;;;;;4.10;3.80;;;23.20;89.80;;;;;;5059715;28;20462;-84
2022/08/04 00:04:35;;;;;;;4.10;3.80;;;23.20;90.20;;;;;;5057543;28;20454;-84
2022/08/04 00:07:13;;;;;;;4.10;3.70;;;23.10;90.40;;;;;;5056252;28;20862;-84
2022/08/04 00:09:47;;;;;;;3.60;3.40;;;23.10;90.60;;;;;;5058350;28;20667;-85
2022/08/04 00:12:17;;;;;;;3.60;3.40;;;23.00;90.80;;;;;;5051582;28;20452;-84
2022/08/04 00:14:48;;;;;;;4.60;4.27;;;23.00;91.20;;;;;;5058649;28;20492;-84
2022/08/04 00:17:19;;;;;;;3.80;3.60;;;23.00;91.60;;;;;;5038462;28;20483;-85
2022/08/04 00:19:48;;;;;;;3.60;3.30;;;22.90;91.90;;;;;;5038209;28;20456;-85
2022/08/04 00:22:19;;;;;;;3.80;3.60;;;22.80;92.20;;;;;;5038403;28;20461;-85
2022/08/04 00:24:47;;;;;;;5.30;4.40;;;22.90;92.40;;;;;;5038119;28;20446;-85
2022/08/04 00:27:14;;;;;;;3.90;3.60;;;22.80;92.60;;;;;;5057458;28;20476;-85
2022/08/04 00:29:41;;;;;;;5.63;5.23;;;22.80;92.80;;;;;;5056049;28;20459;-84
2022/08/04 00:32:08;;;;;;;4.23;3.97;;;22.70;93.00;;;;;;5039481;28;20467;-84
2022/08/04 00:34:36;;;;;;;4.30;4.00;;;22.60;93.50;;;;;;5053101;28;20488;-84
2022/08/04 00:37:05;;;;;;;3.17;2.97;;;22.60;93.80;;;;;;5054807;28;20471;-84
2022/08/04 00:39:32;;;;;;;4.97;4.57;;;22.50;93.80;;;;;;5043312;28;20816;-85
2022/08/04 00:42:23;;;;;;;3.87;3.57;;;22.50;94.30;;;;;;5037563;28;20449;-84
2022/08/04 00:45:03;;;;;;;3.90;3.60;;;22.50;94.20;;;;;;5053499;28;20471;-85
2022/08/04 00:47:42;;;;;;;3.60;3.40;;;22.50;94.30;;;;;;5057923;28;20481;-84
2022/08/04 00:50:10;;;;;;;3.13;2.93;;;22.30;94.50;;;;;;5039058;28;20460;-84
2022/08/04 00:52:52;;;;;;;3.87;3.57;;;22.30;94.70;;;;;;5038430;28;20850;-84
2022/08/04 00:55:35;;;;;;;4.33;3.10;;;22.30;95.00;;;;;;5037343;28;20488;-83
2022/08/04 00:58:28;;;;;;;3.60;3.40;;;22.20;94.90;;;;;;5039437;28;20858;-85
2022/08/04 01:01:01;;;;;;;3.67;3.40;;;22.30;95.10;;;;;;5054917;28;20454;-84
2022/08/04 01:03:40;;;;;;;3.20;3.00;;;22.30;95.20;;;;;;5052775;28;20456;-85
2022/08/04 01:06:15;;;;;;;2.87;2.77;;;22.30;95.20;;;;;;5041255;28;20438;-85
2022/08/04 01:09:04;;;;;;;3.70;3.43;;;22.20;95.10;;;;;;5049808;28;20943;-85
2022/08/04 01:11:47;;;;;;;3.53;3.17;;;22.20;95.30;;;;;;5060455;28;20470;-85
2022/08/04 01:14:37;;;;;;;4.93;4.53;;;22.20;95.40;;;;;;5047124;28;20491;-84
2022/08/04 01:17:10;;;;;;;3.67;3.37;;;22.20;95.50;;;;;;5042522;28;20462;-84
2022/08/04 01:20:00;;;;;;;4.40;4.00;;;22.20;96.10;;;;;;5060403;28;20452;-84
2022/08/04 01:22:55;;;;;;;3.73;3.43;;;22.10;96.40;;;;;;5058354;28;20462;-85
2022/08/04 01:25:53;;;;;;;3.47;3.27;;;22.10;96.80;;;;;;5032038;28;20825;-84
2022/08/04 01:28:29;;;;;;;4.23;3.70;;;22.20;97.10;;;;;;5040539;28;20475;-84
2022/08/04 01:31:06;;;;;;;4.00;3.70;;;22.10;97.40;;;;;;5041243;28;20456;-85
2022/08/04 01:33:37;;;;;;;3.97;3.67;;;22.10;97.50;;;;;;5056213;28;20448;-85
2022/08/04 01:36:06;;;;;;;3.90;3.60;;;22.10;97.80;;;;;;5059931;28;20452;-84
2022/08/04 01:38:35;;;;;;;4.43;4.03;;;22.10;98.10;;;;;;5043930;28;20890;-85
2022/08/04 01:41:04;;;;;;;5.60;3.43;;;22.00;98.00;;;;;;5039734;28;20482;-84
2022/08/04 01:43:33;;;;;;;4.17;3.80;;;22.00;98.10;;;;;;5054194;28;20460;-85
2022/08/04 01:46:03;;;;;;;4.10;3.80;;;22.00;98.00;;;;;;5054244;28;20823;-85
2022/08/04 01:48:31;;;;;;;3.30;3.10;;;22.00;97.90;;;;;;5039888;28;20477;-83
2022/08/04 01:51:02;;;;;;;4.80;4.40;;;22.00;98.00;;;;;;5040946;28;20449;-85
2022/08/04 01:53:32;;;;;;;4.30;3.90;;;22.00;98.00;;;;;;5040079;28;20460;-84
2022/08/04 01:56:00;;;;;;;5.47;4.73;;;22.00;98.00;;;;;;5046506;28;20444;-84
2022/08/04 01:58:29;;;;;;;4.20;3.90;;;21.90;98.00;;;;;;5060412;28;20475;-85
2022/08/04 02:01:01;;;;;;;5.60;5.10;;;21.90;98.20;;;;;;5053636;28;20782;-85
2022/08/04 02:03:29;;;;;;;4.23;3.90;;;21.90;98.30;;;;;;5039473;28;20472;-85
2022/08/04 02:06:22;;;;;;;4.03;3.83;;;21.90;98.40;;;;;;5044741;28;20463;-85
2022/08/04 02:08:56;;;;;;;5.83;5.10;;;21.90;98.70;;;;;;5059929;28;20451;-85
2022/08/04 02:11:23;;;;;;;4.87;4.47;;;21.80;99.00;;;;;;5049994;28;20456;-85
2022/08/04 02:13:57;;;;;;;5.30;4.37;;;21.80;99.30;;;;;;5038691;28;20465;-85
2022/08/04 02:16:32;;;;;;;3.73;3.53;;;21.80;99.20;;;;;;5046761;28;20817;-85
2022/08/04 02:19:10;;;;;;;5.80;3.83;;;21.80;99.20;;;;;;5059555;28;20453;-85
2022/08/04 02:21:40;;;;;;;4.87;4.47;;;21.80;99.30;;;;;;5050705;28;20451;-85
2022/08/04 02:24:12;;;;;;;5.40;4.70;;;21.70;99.30;;;;;;5039540;28;20455;-85
2022/08/04 02:26:42;;;;;;;4.37;4.07;;;21.70;99.40;;;;;;5048337;28;20479;-85
2022/08/04 02:29:16;;;;;;;4.70;3.63;;;21.70;99.60;;;;;;5048202;28;20455;-85
2022/08/04 02:31:48;;;;;;;4.77;4.47;;;21.70;99.70;;;;;;5047496;28;20461;-83
2022/08/04 02:34:22;;;;;;;5.33;4.90;;;21.70;99.90;;;;;;5058622;28;21030;-85
2022/08/04 02:36:50;;;;;;;3.67;3.47;;;21.70;99.90;;;;;;5054701;28;20924;-84
2022/08/04 02:39:20;;;;;;;4.33;3.97;;;21.60;99.90;;;;;;5062420;28;20458;-84
2022/08/04 02:41:49;;;;;;;5.53;4.27;;;21.60;99.90;;;;;;5058832;28;20459;-85
2022/08/04 02:44:23;;;;;;;4.20;3.90;;;21.60;99.90;;;;;;5058507;28;20450;-84
2022/08/04 04:23:42;;;;;;;4.67;4.33;;;20.70;99.90;;;;;;4844649;29;20877;-85
2022/08/04 04:46:57;;;;;;;4.07;3.67;;;20.90;99.90;;;;;;4916400;29;20434;-84
2022/08/04 04:53:19;;;;;;;4.27;3.87;;;21.00;99.90;;;;;;4875202;29;20459;-83
2022/08/04 05:00:07;;;;;;;3.97;3.67;;;21.10;99.90;;;;;;5082770;27;20532;-85
2022/08/04 05:03:19;;;;;;;3.90;3.40;;;21.10;99.90;;;;;;5051298;28;20455;-84
2022/08/04 05:06:19;;;;;;;4.23;3.83;;;21.10;99.90;;;;;;5049930;28;20549;-85
2022/08/04 05:09:54;;;;;;;3.57;3.27;;;21.20;99.90;;;;;;5048353;28;20998;-85
2022/08/04 05:13:06;;;;;;;3.73;3.20;;;21.30;99.90;;;;;;5024721;28;20463;-84
2022/08/04 05:23:12;;;;;;;7.40;3.80;;;21.50;99.90;;;;;;5022923;28;20550;-84
2022/08/04 05:26:12;;;;;;;4.00;2.90;;;21.60;99.90;;;;;;5040318;27;20471;-84
2022/08/04 05:41:23;;;;;;;6.03;3.67;;;22.00;99.90;;;;;;5022548;28;20450;-85
2022/08/04 06:53:26;;;;;;;7.60;4.60;;;24.50;97.70;;;;;;4815516;29;20472;-85
2022/08/04 07:06:00;;;;;;;10.00;4.70;;;25.20;95.00;;;;;;5015705;28;20384;-84
2022/08/04 07:08:27;;;;;;;7.70;4.53;;;25.30;95.70;;;;;;5012685;28;20476;-85
2022/08/04 07:10:55;;;;;;;7.30;4.50;;;25.40;95.10;;;;;;4999789;28;20459;-85
2022/08/04 07:13:23;;;;;;;6.57;4.00;;;25.50;94.20;;;;;;5000362;28;20456;-82
2022/08/04 07:15:50;;;;;;;6.63;4.00;;;25.60;94.80;;;;;;5009707;28;20441;-82
2022/08/04 07:18:17;;;;;;;13.83;5.27;;;25.60;93.80;;;;;;5004019;28;20487;-81
2022/08/04 07:20:45;;;;;;;4.27;3.50;;;25.80;94.40;;;;;;5002352;28;20462;-81
2022/08/04 07:23:18;;;;;;;8.53;3.70;;;26.00;94.90;;;;;;5002543;28;20438;-85
2022/08/04 07:25:51;;;;;;;3.67;3.30;;;26.10;94.30;;;;;;5003381;28;20477;-80
2022/08/04 07:28:18;;;;;;;4.63;3.00;;;26.30;88.90;;;;;;5001905;28;20480;-84
2022/08/04 07:30:46;;;;;;;2.50;2.30;;;26.40;85.80;;;;;;4988548;28;20451;-83
2022/08/04 07:33:14;;;;;;;3.03;2.83;;;26.60;84.20;;;;;;4989666;28;20536;-85
2022/08/04 07:35:41;;;;;;;5.83;2.80;;;26.70;83.90;;;;;;4989490;28;20459;-83
2022/08/04 07:38:08;;;;;;;4.90;3.07;;;26.70;82.10;;;;;;4990286;28;20483;-83
2022/08/04 07:40:36;;;;;;;2.30;2.20;;;26.90;80.70;;;;;;4997193;28;20455;-86
2022/08/04 07:43:04;;;;;;;4.87;2.93;;;27.00;80.80;;;;;;5001001;28;20454;-83
2022/08/04 07:48:44;;;;;;;2.67;2.50;;;27.10;79.00;;;;;;5045659;28;20454;-87
2022/08/04 07:51:15;;;;;;;2.73;2.63;;;27.20;80.80;;;;;;4993995;28;20535;-88
2022/08/04 07:53:47;;;;;;;2.53;2.43;;;27.40;79.00;;;;;;5001569;28;20565;-89
2022/08/04 07:56:24;;;;;;;1.87;1.77;;;27.50;78.10;;;;;;4993606;28;20463;-86
2022/08/04 09:35:12;;;;;;;3.47;3.27;;;31.10;65.20;;;;;;5020003;23;20505;-84
2022/08/04 09:43:28;;;;;;;4.10;3.17;;;31.30;64.10;;;;;;5177164;23;20492;-87
2022/08/04 09:46:12;;;;;;;3.83;2.73;;;31.40;63.40;;;;;;5096970;28;20440;-84
2022/08/04 10:22:25;;;;;;;3.40;3.20;;;33.70;54.80;;;;;;5407197;22;20506;-83
2022/08/04 10:25:02;;;;;;;3.70;3.40;;;33.80;52.10;;;;;;5064439;28;20455;-84
2022/08/04 10:38:12;;;;;;;2.73;2.63;;;34.30;51.90;;;;;;5104720;22;20489;-85
2022/08/04 11:18:10;;;;;;;2.87;2.23;;;37.50;44.80;;;;;;4928203;28;20444;-88
2022/08/04 11:20:42;;;;;;;2.60;2.50;;;38.10;41.50;;;;;;5033398;28;20454;-84
2022/08/04 11:23:11;;;;;;;3.00;2.47;;;38.40;40.10;;;;;;5096699;28;20441;-85
2022/08/04 11:25:52;;;;;;;2.77;2.57;;;38.60;40.30;;;;;;5094835;28;20818;-88
2022/08/04 11:37:06;;;;;;;3.27;3.00;;;39.90;38.30;;;;;;5021387;28;20498;-83
2022/08/04 11:39:36;;;;;;;2.90;2.80;;;40.00;36.40;;;;;;4987250;28;20435;-86
2022/08/04 11:42:10;;;;;;;2.57;2.40;;;40.00;35.40;;;;;;4992270;28;20459;-85
2022/08/04 11:44:56;;;;;;;2.53;2.43;;;40.00;34.70;;;;;;4993317;28;20947;-89
2022/08/04 11:47:48;;;;;;;3.20;3.00;;;40.40;36.70;;;;;;5045822;28;21049;-84
2022/08/04 11:50:21;;;;;;;3.10;2.80;;;40.70;33.60;;;;;;4992592;28;20486;-88
2022/08/04 11:52:49;;;;;;;2.30;2.20;;;40.70;34.40;;;;;;4992526;28;20440;-84
2022/08/04 11:58:09;;;;;;;2.90;2.70;;;41.40;32.60;;;;;;4979665;28;20546;-85
2022/08/04 12:00:58;;;;;;;2.80;2.60;;;41.60;33.10;;;;;;4991488;28;20474;-87
2022/08/04 12:03:34;;;;;;;2.77;2.67;;;41.60;32.20;;;;;;4992803;28;20528;-87
2022/08/04 12:06:25;;;;;;;2.90;2.80;;;41.60;31.40;;;;;;4992488;28;20885;-86
2022/08/04 12:09:03;;;;;;;2.60;2.50;;;41.30;31.50;;;;;;4991244;28;20498;-88
2022/08/04 12:11:42;;;;;;;2.60;2.50;;;41.50;32.30;;;;;;4992139;28;20443;-87
2022/08/04 12:14:18;;;;;;;3.10;2.90;;;41.70;33.30;;;;;;4994047;28;20451;-85
2022/08/04 12:16:52;;;;;;;2.93;2.73;;;41.80;31.90;;;;;;4989070;28;20456;-85
2022/08/04 12:19:26;;;;;;;2.80;2.60;;;42.00;31.60;;;;;;4977448;28;20810;-86
2022/08/04 12:21:58;;;;;;;3.00;2.80;;;42.30;30.70;;;;;;4980522;28;20454;-85
2022/08/04 12:24:31;;;;;;;3.20;3.00;;;42.10;30.70;;;;;;4991283;28;20997;-86
2022/08/04 12:27:04;;;;;;;3.00;2.87;;;41.70;31.50;;;;;;4972235;28;20472;-88
2022/08/04 12:29:34;;;;;;;4.00;3.60;;;41.40;32.20;;;;;;4973874;28;21302;-86
2022/08/04 12:32:10;;;;;;;3.00;2.80;;;41.70;32.40;;;;;;4972222;28;20467;-87
2022/08/04 12:38:49;;;;;;;3.50;3.30;;;40.00;33.00;;;;;;5055468;23;20497;-87
2022/08/04 12:41:52;;;;;;;2.87;2.67;;;38.60;33.70;;;;;;5010904;28;20450;-88
2022/08/04 12:44:20;;;;;;;4.20;3.30;;;38.30;35.00;;;;;;5010923;28;20573;-84
2022/08/04 12:46:48;;;;;;;3.67;2.90;;;38.30;34.80;;;;;;5011532;28;20450;-86
2022/08/04 12:49:16;;;;;;;2.93;2.73;;;38.50;34.90;;;;;;5003276;28;20483;-87
2022/08/04 12:51:47;;;;;;;2.53;2.43;;;39.10;34.60;;;;;;4991517;28;21109;-86
2022/08/04 12:54:22;;;;;;;2.50;2.40;;;39.00;34.20;;;;;;4991262;28;20428;-87
2022/08/04 12:57:02;;;;;;;2.93;2.73;;;39.00;34.10;;;;;;4991678;28;20490;-88
2022/08/04 13:02:16;;;;;;;3.20;3.00;;;39.20;33.60;;;;;;4991924;28;20463;-87
2022/08/04 13:04:44;;;;;;;3.00;2.80;;;39.70;33.40;;;;;;4999054;28;20454;-86
2022/08/04 13:10:36;;;;;;;3.00;2.90;;;40.30;32.60;;;;;;5002793;28;20549;-84
2022/08/04 13:13:05;;;;;;;3.10;2.80;;;40.30;32.00;;;;;;5003091;28;20472;-85
2022/08/04 13:15:32;;;;;;;3.00;2.80;;;40.50;32.20;;;;;;4993595;28;20211;-83
2022/08/04 13:18:03;;;;;;;3.27;3.10;;;40.40;31.90;;;;;;4993232;28;20502;-84
2022/08/04 13:20:33;;;;;;;3.37;3.17;;;40.50;32.10;;;;;;4997728;28;20455;-85
2022/08/04 13:23:04;;;;;;;3.07;2.87;;;40.40;32.00;;;;;;5009511;28;20454;-84
2022/08/04 13:25:33;;;;;;;3.67;3.47;;;41.10;34.20;;;;;;5004195;28;20486;-84
2022/08/04 13:28:01;;;;;;;4.20;3.93;;;41.90;32.20;;;;;;5014688;28;20481;-84
2022/08/04 13:30:31;;;;;;;3.47;3.27;;;42.50;31.70;;;;;;5014131;28;20486;-84
2022/08/04 13:33:00;;;;;;;4.17;3.77;;;42.90;30.80;;;;;;5013904;28;20454;-84
2022/08/04 13:35:28;;;;;;;2.87;2.70;;;43.20;29.50;;;;;;5014036;28;20446;-84
2022/08/04 13:37:56;;;;;;;3.07;2.87;;;42.40;29.60;;;;;;5014310;28;20477;-84
2022/08/04 13:40:25;;;;;;;3.60;3.30;;;42.30;29.70;;;;;;5014246;28;20450;-84
2022/08/04 13:42:54;;;;;;;2.90;2.80;;;42.40;29.50;;;;;;5014557;28;20449;-84
2022/08/04 13:45:23;;;;;;;2.93;2.73;;;42.40;30.10;;;;;;5014613;28;20454;-84
2022/08/04 13:47:57;;;;;;;2.70;2.60;;;43.10;30.20;;;;;;5015599;28;20462;-84
2022/08/04 13:50:28;;;;;;;2.90;2.70;;;44.00;29.70;;;;;;5019869;28;20489;-84
2022/08/04 13:52:57;;;;;;;2.90;2.70;;;45.30;29.30;;;;;;5021022;28;20453;-85
2022/08/04 13:55:27;;;;;;;3.43;3.23;;;46.40;27.90;;;;;;5015711;28;20510;-85
2022/08/04 13:57:58;;;;;;;3.30;3.10;;;47.20;25.90;;;;;;5014121;28;20474;-85
2022/08/04 14:00:26;;;;;;;3.20;3.00;;;47.20;25.50;;;;;;5015075;28;20446;-84
2022/08/04 14:03:01;;;;;;;3.70;3.50;;;47.30;25.40;;;;;;5014346;28;20450;-84
2022/08/04 14:05:30;;;;;;;3.00;2.77;;;47.20;25.30;;;;;;5013974;28;20466;-85
2022/08/04 14:08:07;;;;;;;3.37;3.07;;;46.30;25.20;;;;;;5013859;28;20474;-84
2022/08/04 14:10:34;;;;;;;3.47;3.27;;;44.10;26.20;;;;;;5013459;28;20485;-84
2022/08/04 14:13:04;;;;;;;3.10;2.90;;;43.20;27.10;;;;;;5013721;28;20485;-84
2022/08/04 14:15:37;;;;;;;3.73;3.30;;;43.10;27.70;;;;;;5013076;28;20454;-84
2022/08/04 14:18:20;;;;;;;4.03;3.83;;;42.40;28.50;;;;;;5013263;28;20829;-84
2022/08/04 14:21:06;;;;;;;2.97;2.87;;;42.50;29.10;;;;;;5014428;28;20453;-84
2022/08/04 14:23:46;;;;;;;3.07;2.93;;;42.40;29.10;;;;;;5010343;28;20672;-84
2022/08/04 14:26:21;;;;;;;3.37;3.20;;;42.60;28.60;;;;;;5016074;28;20443;-84
2022/08/04 14:28:49;;;;;;;3.30;3.10;;;42.60;28.00;;;;;;5016714;28;20998;-86
2022/08/04 14:31:18;;;;;;;3.23;2.93;;;42.50;28.30;;;;;;5015865;28;20458;-84
2022/08/04 14:33:47;;;;;;;2.73;2.63;;;42.20;28.10;;;;;;5015129;28;20462;-84
2022/08/04 14:36:15;;;;;;;2.43;2.33;;;41.10;29.30;;;;;;5015605;28;20450;-84
2022/08/04 14:38:46;;;;;;;3.03;2.90;;;41.10;29.30;;;;;;5015232;28;20478;-84
2022/08/04 14:41:14;;;;;;;3.70;3.50;;;41.30;29.80;;;;;;5015900;28;20839;-84
2022/08/04 14:43:43;;;;;;;3.80;3.33;;;42.00;29.10;;;;;;5018744;28;20451;-84
2022/08/04 14:46:11;;;;;;;3.57;3.37;;;42.80;28.50;;;;;;5035621;28;20474;-83
2022/08/04 14:48:38;;;;;;;3.60;3.03;;;43.90;28.80;;;;;;5035826;28;20470;-84
2022/08/04 14:51:13;;;;;;;3.60;3.30;;;45.30;28.90;;;;;;5036437;28;20476;-84
2022/08/04 14:53:39;;;;;;;3.90;3.60;;;46.50;26.50;;;;;;5033889;28;20445;-84
2022/08/04 14:56:08;;;;;;;3.30;3.10;;;47.40;25.90;;;;;;5035584;28;20442;-84
2022/08/04 14:58:35;;;;;;;2.97;2.77;;;48.30;25.30;;;;;;5034795;28;20468;-84
2022/08/04 15:01:03;;;;;;;3.40;3.30;;;49.20;24.80;;;;;;5032090;28;20488;-84
2022/08/04 15:03:31;;;;;;;3.73;3.00;;;49.60;23.80;;;;;;5036744;28;20422;-85
2022/08/04 15:06:01;;;;;;;3.07;2.97;;;49.80;23.30;;;;;;5036594;28;20470;-85
2022/08/04 15:08:30;;;;;;;3.43;3.13;;;49.70;23.30;;;;;;5036402;28;20473;-85
2022/08/04 15:10:58;;;;;;;3.07;2.87;;;49.30;23.60;;;;;;5036277;28;20488;-84
2022/08/04 15:13:25;;;;;;;3.60;3.40;;;49.40;22.90;;;;;;5036045;28;20478;-82
2022/08/04 15:15:53;;;;;;;2.90;2.70;;;48.20;23.30;;;;;;5026750;28;20453;-82
2022/08/04 15:18:20;;;;;;;3.17;3.07;;;47.90;24.60;;;;;;5016255;28;20830;-82
2022/08/04 15:20:47;;;;;;;3.23;2.97;;;47.70;23.90;;;;;;5016271;28;20446;-82
2022/08/04 15:23:14;;;;;;;2.50;2.40;;;47.70;24.10;;;;;;5014867;28;20465;-82
2022/08/04 15:25:46;;;;;;;3.27;3.17;;;47.50;24.20;;;;;;5007239;28;20462;-82
2022/08/04 15:28:17;;;;;;;2.53;2.43;;;47.10;24.20;;;;;;4999291;28;20471;-82
2022/08/04 15:31:03;;;;;;;3.30;3.10;;;47.60;24.00;;;;;;5003861;28;20476;-84
2022/08/04 15:33:32;;;;;;;2.83;2.63;;;48.20;23.70;;;;;;4997983;28;20457;-81
2022/08/04 15:36:15;;;;;;;2.73;2.63;;;48.60;23.60;;;;;;4994774;28;20458;-87
2022/08/04 15:39:08;;;;;;;3.10;2.80;;;49.00;23.00;;;;;;5001374;28;20996;-88
2022/08/04 15:41:44;;;;;;;3.30;3.10;;;49.50;23.20;;;;;;5010402;28;21075;-88
2022/08/04 15:47:34;;;;;;;3.40;3.30;;;50.80;22.10;;;;;;5011764;28;20429;-86
2022/08/04 15:50:07;;;;;;;3.13;2.93;;;50.70;21.80;;;;;;5010988;28;20492;-86
2022/08/04 15:52:59;;;;;;;2.77;2.57;;;50.30;21.90;;;;;;5010625;28;20458;-86
2022/08/04 15:55:34;;;;;;;3.00;2.90;;;50.20;22.00;;;;;;5009053;28;20450;-84
2022/08/04 15:58:04;;;;;;;3.07;2.87;;;49.80;22.20;;;;;;4990541;28;20475;-85
2022/08/04 16:01:00;;;;;;;2.90;2.80;;;49.80;22.30;;;;;;4991191;28;20483;-84
2022/08/04 16:14:15;;;;;;;3.53;3.23;;;49.20;22.70;;;;;;5250478;23;20507;-83
2022/08/04 16:16:50;;;;;;;3.23;3.03;;;49.10;23.10;;;;;;5040572;27;20454;-83
2022/08/04 16:20:02;;;;;;;3.20;3.00;;;49.50;23.00;;;;;;5136246;27;20448;-86
2022/08/04 16:26:27;;;;;;;3.27;3.03;;;50.00;22.50;;;;;;5052541;28;20582;-85
2022/08/04 16:28:54;;;;;;;3.40;3.20;;;49.70;22.30;;;;;;5062435;28;20455;-83
2022/08/04 16:38:33;;;;;;;3.00;2.60;;;49.50;22.30;;;;;;5048601;28;20469;-82
2022/08/04 16:41:01;;;;;;;3.13;3.00;;;49.30;22.70;;;;;;5032181;28;20444;-86
2022/08/04 16:43:36;;;;;;;2.70;2.60;;;49.40;22.70;;;;;;5091460;28;20446;-86
2022/08/04 16:46:05;;;;;;;2.70;2.60;;;49.50;23.10;;;;;;5117189;28;20449;-86
2022/08/04 17:00:58;;;;;;;3.10;2.90;;;48.40;22.80;;;;;;5428235;22;20490;-84
2022/08/04 17:03:25;;;;;;;3.10;2.90;;;48.20;22.80;;;;;;4989204;28;20466;-83
2022/08/04 17:06:06;;;;;;;3.80;3.50;;;47.80;22.90;;;;;;4990705;28;20461;-86
2022/08/04 17:11:47;;;;;;;3.80;3.50;;;47.30;23.50;;;;;;5062694;28;20869;-84
2022/08/04 17:14:20;;;;;;;3.27;3.07;;;47.20;23.70;;;;;;5070171;28;20462;-83
2022/08/04 17:16:48;;;;;;;3.60;3.40;;;47.10;23.50;;;;;;4996978;28;20447;-83
2022/08/04 17:19:15;;;;;;;2.90;2.80;;;47.20;23.80;;;;;;5018512;28;20442;-83
2022/08/04 17:21:42;;;;;;;2.90;2.70;;;47.00;24.10;;;;;;5016353;28;20443;-82
2022/08/04 17:24:09;;;;;;;3.00;2.90;;;46.80;24.10;;;;;;5007141;28;20451;-82
2022/08/04 17:26:39;;;;;;;3.53;3.33;;;46.50;24.40;;;;;;5008837;28;20452;-82
2022/08/04 17:29:06;;;;;;;4.73;4.43;;;46.30;25.00;;;;;;5007678;28;20829;-82
2022/08/04 17:31:35;;;;;;;3.13;2.93;;;46.10;24.90;;;;;;5007935;28;20483;-82
2022/08/04 17:34:09;;;;;;;4.07;3.77;;;45.60;25.30;;;;;;5009472;28;20454;-82
2022/08/04 17:36:37;;;;;;;3.27;3.07;;;45.20;25.90;;;;;;4987976;28;20448;-83
2022/08/04 17:39:12;;;;;;;3.10;2.90;;;44.80;26.30;;;;;;4979015;28;20451;-83
2022/08/04 17:41:39;;;;;;;4.37;3.87;;;44.10;26.30;;;;;;4997464;28;20456;-83
2022/08/04 17:44:06;;;;;;;3.40;3.20;;;43.40;26.90;;;;;;4997664;28;20459;-83
2022/08/04 17:46:39;;;;;;;2.97;2.80;;;42.50;27.50;;;;;;4998116;28;20455;-82
2022/08/04 17:49:10;;;;;;;3.33;3.13;;;41.70;28.30;;;;;;4997309;28;20447;-82
2022/08/04 17:51:45;;;;;;;3.43;3.10;;;41.20;29.40;;;;;;4998109;28;20518;-82
2022/08/04 17:54:14;;;;;;;2.97;2.87;;;40.70;29.80;;;;;;4997437;28;20955;-82
2022/08/04 17:56:43;;;;;;;2.90;2.70;;;40.30;30.00;;;;;;4996985;28;20462;-82
2022/08/04 17:59:16;;;;;;;3.50;3.30;;;39.90;30.30;;;;;;4996187;28;20456;-82
2022/08/04 18:01:45;;;;;;;4.63;4.33;;;39.50;30.60;;;;;;4998375;28;20530;-82
2022/08/04 18:04:40;;;;;;;4.13;3.93;;;39.00;31.00;;;;;;5000924;28;20462;-82
2022/08/04 18:07:09;;;;;;;3.97;3.67;;;38.60;31.90;;;;;;5001035;28;20486;-82
2022/08/04 18:09:39;;;;;;;4.03;3.73;;;38.20;32.90;;;;;;4999974;28;20932;-82
2022/08/04 18:12:08;;;;;;;3.70;3.40;;;37.90;33.50;;;;;;4999230;28;20498;-82
2022/08/04 18:14:40;;;;;;;3.70;3.37;;;37.80;34.10;;;;;;4998309;28;20937;-82
2022/08/04 18:17:07;;;;;;;3.83;3.53;;;37.80;34.70;;;;;;4997980;28;20482;-82
2022/08/04 18:19:34;;;;;;;3.47;3.27;;;37.80;34.70;;;;;;4997759;28;20463;-82
2022/08/04 18:22:03;;;;;;;7.50;7.00;;;37.90;34.80;;;;;;4998529;28;20443;-82
2022/08/04 18:24:31;;;;;;;5.43;5.03;;;37.90;34.80;;;;;;4998182;28;20458;-82
2022/08/04 18:26:58;;;;;;;3.90;3.60;;;37.90;35.10;;;;;;4997964;28;20825;-82
2022/08/04 18:29:24;;;;;;;5.50;5.13;;;37.80;34.90;;;;;;4997513;28;20464;-82
2022/08/04 18:31:51;;;;;;;4.30;4.00;;;37.60;35.30;;;;;;4998829;28;20487;-83
2022/08/04 18:34:18;;;;;;;4.90;4.60;;;37.50;35.40;;;;;;5002931;28;20451;-81
2022/08/04 18:36:44;;;;;;;5.70;3.57;;;37.20;35.70;;;;;;5010829;28;20458;-81
2022/08/04 18:39:12;;;;;;;4.17;3.87;;;36.90;35.70;;;;;;5000876;28;20459;-82
2022/08/04 18:41:39;;;;;;;7.10;3.80;;;36.60;36.10;;;;;;4997524;28;20456;-82
2022/08/04 18:44:06;;;;;;;4.43;3.63;;;36.20;36.60;;;;;;4996247;28;20459;-82
2022/08/04 18:46:33;;;;;;;3.97;3.77;;;35.80;37.40;;;;;;4995864;28;20522;-81
2022/08/04 18:49:00;;;;;;;4.10;3.70;;;35.50;38.10;;;;;;4995531;28;20458;-81
2022/08/04 18:51:26;;;;;;;3.50;3.30;;;35.10;38.70;;;;;;4995159;28;20842;-81
2022/08/04 18:53:53;;;;;;;7.23;4.40;;;34.70;39.20;;;;;;4995048;28;20558;-82
2022/08/04 18:56:21;;;;;;;4.53;4.13;;;34.40;40.00;;;;;;4998109;28;20482;-82
2022/08/04 18:58:48;;;;;;;4.47;4.07;;;34.10;40.60;;;;;;4995204;28;20990;-82
2022/08/04 19:01:15;;;;;;;4.50;4.10;;;33.70;41.30;;;;;;4996053;28;20700;-82
2022/08/04 19:03:42;;;;;;;5.93;4.20;;;33.40;41.60;;;;;;4996495;28;20963;-82
2022/08/04 19:06:09;;;;;;;4.53;4.23;;;33.10;42.60;;;;;;4995676;28;20952;-82
2022/08/04 19:08:35;;;;;;;3.67;3.37;;;32.80;43.40;;;;;;4995767;28;20485;-81
2022/08/04 19:11:04;;;;;;;4.80;4.40;;;32.60;44.00;;;;;;4994781;28;20505;-81
2022/08/04 19:13:32;;;;;;;4.70;4.40;;;32.40;44.60;;;;;;4994534;28;20456;-81
2022/08/04 19:15:59;;;;;;;4.17;3.77;;;32.20;45.10;;;;;;4994593;28;20798;-81
2022/08/04 19:18:26;;;;;;;4.80;4.40;;;32.00;45.60;;;;;;4994693;28;20477;-81
2022/08/04 19:20:53;;;;;;;5.27;4.67;;;31.80;46.10;;;;;;4995190;28;20455;-82
2022/08/04 19:23:20;;;;;;;4.03;3.53;;;31.60;46.70;;;;;;4994782;28;20461;-81
2022/08/04 19:25:47;;;;;;;4.10;3.90;;;31.50;46.80;;;;;;4994662;28;20457;-80
2022/08/04 19:28:14;;;;;;;5.50;4.80;;;31.40;47.20;;;;;;4992922;28;20478;-80
2022/08/04 19:30:42;;;;;;;4.70;4.40;;;31.20;47.50;;;;;;4994066;28;20491;-80
2022/08/04 19:33:09;;;;;;;5.73;5.27;;;31.10;48.10;;;;;;4993752;28;20466;-79
2022/08/04 19:35:36;;;;;;;5.23;4.83;;;30.90;48.60;;;;;;4993449;28;20472;-80
2022/08/04 19:38:03;;;;;;;4.43;4.20;;;30.70;49.00;;;;;;4993176;28;20506;-79
2022/08/04 19:40:30;;;;;;;6.20;4.93;;;30.60;49.50;;;;;;5003501;28;20478;-79
2022/08/04 19:42:57;;;;;;;6.23;5.63;;;30.50;49.60;;;;;;5007183;28;20980;-80
2022/08/04 19:45:23;;;;;;;5.50;5.00;;;30.30;50.60;;;;;;4993147;28;20454;-79
2022/08/04 19:47:51;;;;;;;7.53;5.70;;;30.20;51.60;;;;;;4994177;28;20467;-79
2022/08/04 19:50:19;;;;;;;5.70;5.17;;;30.10;52.10;;;;;;5007859;28;20446;-80
2022/08/04 19:52:45;;;;;;;8.47;6.83;;;30.00;52.50;;;;;;5013025;28;20457;-79
2022/08/04 19:55:12;;;;;;;12.13;6.23;;;29.90;53.00;;;;;;5002858;28;20456;-78
2022/08/04 19:57:42;;;;;;;5.53;5.10;;;29.80;53.10;;;;;;5005774;28;20477;-78
2022/08/04 20:00:11;;;;;;;6.30;5.80;;;29.70;53.60;;;;;;4998308;28;20722;-78
2022/08/04 20:02:38;;;;;;;8.80;6.23;;;29.60;53.80;;;;;;5001209;28;20473;-78
2022/08/04 20:05:06;;;;;;;5.50;4.97;;;29.50;54.20;;;;;;5006472;28;20457;-78
2022/08/04 20:07:33;;;;;;;8.90;5.67;;;29.40;54.80;;;;;;4996253;28;20470;-79
2022/08/04 20:10:00;;;;;;;9.43;6.37;;;29.30;55.00;;;;;;4999709;28;20458;-78
2022/08/04 20:12:27;;;;;;;6.00;5.60;;;29.20;54.20;;;;;;5003377;28;20482;-79
2022/08/04 20:14:53;;;;;;;7.87;5.03;;;29.20;54.80;;;;;;5003935;28;20803;-78
2022/08/04 20:17:20;;;;;;;5.43;4.87;;;29.00;55.20;;;;;;5000810;28;20487;-78
2022/08/04 20:19:47;;;;;;;4.43;4.13;;;29.00;55.40;;;;;;5000696;28;20857;-78
2022/08/04 20:22:17;;;;;;;6.33;5.80;;;28.90;55.60;;;;;;4998950;28;20449;-78
2022/08/04 20:24:44;;;;;;;6.70;5.27;;;28.80;55.90;;;;;;5000136;28;20454;-78
2022/08/04 20:27:11;;;;;;;6.00;5.60;;;28.70;56.10;;;;;;5012985;28;20481;-78
2022/08/04 20:29:38;;;;;;;4.97;4.57;;;28.60;56.10;;;;;;5004420;28;20452;-78
2022/08/04 20:32:05;;;;;;;6.03;5.63;;;28.50;56.40;;;;;;4996153;28;20502;-77
2022/08/04 20:34:32;;;;;;;5.77;5.37;;;28.50;57.00;;;;;;5007793;28;20458;-77
2022/08/04 20:36:58;;;;;;;5.83;5.13;;;28.40;57.20;;;;;;5002383;28;20553;-78
2022/08/04 20:39:26;;;;;;;6.43;5.60;;;28.30;58.10;;;;;;4994418;28;20481;-78
2022/08/04 20:41:53;;;;;;;6.53;5.97;;;28.30;57.90;;;;;;4995216;28;20461;-78
2022/08/04 20:44:20;;;;;;;7.30;5.53;;;28.30;58.30;;;;;;4998201;28;20451;-78
2022/08/04 20:46:47;;;;;;;6.13;5.73;;;28.20;58.60;;;;;;4993601;28;20450;-78
2022/08/04 20:49:13;;;;;;;5.87;5.50;;;28.10;58.90;;;;;;4993109;28;20447;-78
2022/08/04 20:51:42;;;;;;;6.07;5.50;;;28.10;59.30;;;;;;4993090;28;20489;-78
2022/08/04 20:54:09;;;;;;;6.60;6.10;;;28.10;59.80;;;;;;4993033;28;20489;-78
2022/08/04 20:56:37;;;;;;;6.23;5.50;;;28.00;59.90;;;;;;4993210;28;20552;-78
2022/08/04 20:59:04;;;;;;;7.03;6.37;;;27.90;60.90;;;;;;4993344;28;20966;-79
2022/08/04 21:01:31;;;;;;;6.80;6.30;;;27.80;61.60;;;;;;4993210;28;20978;-79
2022/08/04 21:06:42;;;;;;;6.97;6.40;;;27.70;62.60;;;;;;4972199;28;21013;-78
2022/08/04 21:09:09;;;;;;;7.27;6.77;;;27.60;63.20;;;;;;4972236;28;20460;-78